sensor_id;sensor_type;location;lat;lon;timestamp;P1;durP1;ratioP1;P2;durP2;ratioP2
56136;SDS011;42008;52.934;5.884;2023-04-24T00:01:39;11.33;;;9.83;;
56136;SDS011;42008;52.934;5.884;2023-04-24T00:04:05;12.47;;;10.43;;
56136;SDS011;42008;52.934;5.884;2023-04-24T00:06:32;12.03;;;9.40;;
56136;SDS011;42008;52.934;5.884;2023-04-24T00:09:01;10.03;;;9.03;;
56136;SDS011;42008;52.934;5.884;2023-04-24T00:11:28;11.57;;;9.30;;
56136;SDS011;42008;52.934;5.884;2023-04-24T00:13:54;12.00;;;10.10;;
56136;SDS011;42008;52.934;5.884;2023-04-24T00:16:20;12.70;;;9.30;;
56136;SDS011;42008;52.934;5.884;2023-04-24T00:18:46;11.33;;;9.83;;
56136;SDS011;42008;52.934;5.884;2023-04-24T00:21:13;13.20;;;9.90;;
56136;SDS011;42008;52.934;5.884;2023-04-24T00:23:39;9.67;;;8.67;;
56136;SDS011;42008;52.934;5.884;2023-04-24T00:26:05;9.70;;;8.50;;
56136;SDS011;42008;52.934;5.884;2023-04-24T00:28:31;9.77;;;8.43;;
56136;SDS011;42008;52.934;5.884;2023-04-24T00:30:56;9.53;;;8.53;;
56136;SDS011;42008;52.934;5.884;2023-04-24T00:33:22;10.93;;;8.37;;
56136;SDS011;42008;52.934;5.884;2023-04-24T00:35:48;11.90;;;8.83;;
56136;SDS011;42008;52.934;5.884;2023-04-24T00:38:13;10.03;;;8.23;;
56136;SDS011;42008;52.934;5.884;2023-04-24T00:40:39;8.70;;;6.90;;
56136;SDS011;42008;52.934;5.884;2023-04-24T00:43:04;8.13;;;7.17;;
56136;SDS011;42008;52.934;5.884;2023-04-24T00:45:30;10.27;;;7.97;;
56136;SDS011;42008;52.934;5.884;2023-04-24T00:47:56;9.23;;;7.80;;
56136;SDS011;42008;52.934;5.884;2023-04-24T00:50:23;7.90;;;6.63;;
56136;SDS011;42008;52.934;5.884;2023-04-24T00:52:49;7.97;;;5.87;;
56136;SDS011;42008;52.934;5.884;2023-04-24T00:55:15;6.27;;;5.67;;
56136;SDS011;42008;52.934;5.884;2023-04-24T00:57:41;9.13;;;6.20;;
56136;SDS011;42008;52.934;5.884;2023-04-24T01:00:07;8.07;;;6.10;;
56136;SDS011;42008;52.934;5.884;2023-04-24T01:02:35;6.87;;;6.10;;
56136;SDS011;42008;52.934;5.884;2023-04-24T01:05:05;9.43;;;6.40;;
56136;SDS011;42008;52.934;5.884;2023-04-24T01:07:32;8.17;;;6.40;;
56136;SDS011;42008;52.934;5.884;2023-04-24T01:09:58;7.70;;;6.37;;
56136;SDS011;42008;52.934;5.884;2023-04-24T01:12:24;8.23;;;6.27;;
56136;SDS011;42008;52.934;5.884;2023-04-24T01:14:49;7.70;;;6.50;;
56136;SDS011;42008;52.934;5.884;2023-04-24T01:17:15;9.73;;;6.63;;
56136;SDS011;42008;52.934;5.884;2023-04-24T01:19:41;10.37;;;7.50;;
56136;SDS011;42008;52.934;5.884;2023-04-24T01:22:13;9.60;;;8.60;;
56136;SDS011;42008;52.934;5.884;2023-04-24T01:24:39;10.87;;;7.53;;
56136;SDS011;42008;52.934;5.884;2023-04-24T01:27:06;8.80;;;7.80;;
56136;SDS011;42008;52.934;5.884;2023-04-24T01:29:32;9.20;;;7.90;;
56136;SDS011;42008;52.934;5.884;2023-04-24T01:31:58;9.20;;;8.27;;
56136;SDS011;42008;52.934;5.884;2023-04-24T01:34:24;8.27;;;7.47;;
56136;SDS011;42008;52.934;5.884;2023-04-24T01:36:50;9.50;;;8.07;;
56136;SDS011;42008;52.934;5.884;2023-04-24T01:39:16;9.73;;;8.47;;
56136;SDS011;42008;52.934;5.884;2023-04-24T01:41:42;10.67;;;9.40;;
56136;SDS011;42008;52.934;5.884;2023-04-24T01:44:07;10.63;;;9.53;;
56136;SDS011;42008;52.934;5.884;2023-04-24T01:46:33;9.00;;;8.10;;
56136;SDS011;42008;52.934;5.884;2023-04-24T01:49:00;11.50;;;9.03;;
56136;SDS011;42008;52.934;5.884;2023-04-24T01:51:26;10.80;;;9.13;;
56136;SDS011;42008;52.934;5.884;2023-04-24T01:53:52;18.97;;;9.93;;
56136;SDS011;42008;52.934;5.884;2023-04-24T01:56:19;11.67;;;9.33;;
56136;SDS011;42008;52.934;5.884;2023-04-24T01:58:46;9.67;;;8.67;;
56136;SDS011;42008;52.934;5.884;2023-04-24T02:01:19;11.53;;;9.73;;
56136;SDS011;42008;52.934;5.884;2023-04-24T02:03:45;11.63;;;9.20;;
56136;SDS011;42008;52.934;5.884;2023-04-24T02:06:11;12.60;;;9.00;;
56136;SDS011;42008;52.934;5.884;2023-04-24T02:08:37;12.93;;;9.37;;
56136;SDS011;42008;52.934;5.884;2023-04-24T02:11:02;11.13;;;9.70;;
56136;SDS011;42008;52.934;5.884;2023-04-24T02:13:28;10.60;;;9.23;;
56136;SDS011;42008;52.934;5.884;2023-04-24T02:15:54;13.10;;;10.13;;
56136;SDS011;42008;52.934;5.884;2023-04-24T02:18:19;14.20;;;11.30;;
56136;SDS011;42008;52.934;5.884;2023-04-24T02:20:45;12.43;;;10.70;;
56136;SDS011;42008;52.934;5.884;2023-04-24T02:23:11;14.03;;;11.47;;
56136;SDS011;42008;52.934;5.884;2023-04-24T02:25:38;12.30;;;11.00;;
56136;SDS011;42008;52.934;5.884;2023-04-24T02:28:03;13.60;;;12.20;;
56136;SDS011;42008;52.934;5.884;2023-04-24T02:30:29;15.90;;;13.50;;
56136;SDS011;42008;52.934;5.884;2023-04-24T02:32:55;16.20;;;13.93;;
56136;SDS011;42008;52.934;5.884;2023-04-24T02:35:21;17.87;;;15.33;;
56136;SDS011;42008;52.934;5.884;2023-04-24T02:37:46;17.70;;;15.80;;
56136;SDS011;42008;52.934;5.884;2023-04-24T02:40:12;17.77;;;15.87;;
56136;SDS011;42008;52.934;5.884;2023-04-24T02:42:38;18.50;;;16.50;;
56136;SDS011;42008;52.934;5.884;2023-04-24T02:45:03;21.13;;;16.83;;
56136;SDS011;42008;52.934;5.884;2023-04-24T02:47:30;20.63;;;18.07;;
56136;SDS011;42008;52.934;5.884;2023-04-24T02:49:55;24.30;;;18.50;;
56136;SDS011;42008;52.934;5.884;2023-04-24T02:52:21;23.40;;;20.57;;
56136;SDS011;42008;52.934;5.884;2023-04-24T02:54:46;24.07;;;20.03;;
56136;SDS011;42008;52.934;5.884;2023-04-24T02:57:12;25.90;;;20.07;;
56136;SDS011;42008;52.934;5.884;2023-04-24T02:59:37;28.13;;;21.07;;
56136;SDS011;42008;52.934;5.884;2023-04-24T03:02:03;26.53;;;21.13;;
56136;SDS011;42008;52.934;5.884;2023-04-24T03:04:29;30.80;;;23.03;;
56136;SDS011;42008;52.934;5.884;2023-04-24T03:06:54;32.37;;;23.10;;
56136;SDS011;42008;52.934;5.884;2023-04-24T03:09:20;10.33;;;8.63;;
56136;SDS011;42008;52.934;5.884;2023-04-24T03:11:47;7.63;;;6.50;;
56136;SDS011;42008;52.934;5.884;2023-04-24T03:14:13;6.43;;;5.37;;
56136;SDS011;42008;52.934;5.884;2023-04-24T03:16:39;5.03;;;3.93;;
56136;SDS011;42008;52.934;5.884;2023-04-24T03:19:04;5.43;;;3.83;;
56136;SDS011;42008;52.934;5.884;2023-04-24T03:21:30;6.57;;;3.50;;
56136;SDS011;42008;52.934;5.884;2023-04-24T03:23:56;5.10;;;3.90;;
56136;SDS011;42008;52.934;5.884;2023-04-24T03:26:21;5.00;;;3.37;;
56136;SDS011;42008;52.934;5.884;2023-04-24T03:28:47;5.20;;;3.83;;
56136;SDS011;42008;52.934;5.884;2023-04-24T03:31:12;5.47;;;4.87;;
56136;SDS011;42008;52.934;5.884;2023-04-24T03:33:38;5.67;;;4.97;;
56136;SDS011;42008;52.934;5.884;2023-04-24T03:36:03;10.07;;;6.97;;
56136;SDS011;42008;52.934;5.884;2023-04-24T03:38:30;8.27;;;7.40;;
56136;SDS011;42008;52.934;5.884;2023-04-24T03:40:55;10.40;;;9.30;;
56136;SDS011;42008;52.934;5.884;2023-04-24T03:43:21;12.77;;;9.83;;
56136;SDS011;42008;52.934;5.884;2023-04-24T03:45:46;14.93;;;11.30;;
56136;SDS011;42008;52.934;5.884;2023-04-24T03:48:12;15.93;;;13.07;;
56136;SDS011;42008;52.934;5.884;2023-04-24T03:50:37;19.63;;;15.60;;
56136;SDS011;42008;52.934;5.884;2023-04-24T03:53:03;24.53;;;19.17;;
56136;SDS011;42008;52.934;5.884;2023-04-24T03:55:29;24.47;;;20.87;;
56136;SDS011;42008;52.934;5.884;2023-04-24T03:57:54;26.23;;;22.43;;
56136;SDS011;42008;52.934;5.884;2023-04-24T04:00:20;29.30;;;23.23;;
56136;SDS011;42008;52.934;5.884;2023-04-24T04:02:46;31.67;;;24.30;;
56136;SDS011;42008;52.934;5.884;2023-04-24T04:05:11;34.20;;;26.60;;
56136;SDS011;42008;52.934;5.884;2023-04-24T04:07:37;35.43;;;27.37;;
56136;SDS011;42008;52.934;5.884;2023-04-24T04:10:03;30.60;;;24.83;;
56136;SDS011;42008;52.934;5.884;2023-04-24T04:12:29;33.77;;;26.13;;
56136;SDS011;42008;52.934;5.884;2023-04-24T04:14:55;33.87;;;26.03;;
56136;SDS011;42008;52.934;5.884;2023-04-24T04:17:20;30.60;;;23.33;;
56136;SDS011;42008;52.934;5.884;2023-04-24T04:19:46;29.87;;;23.30;;
56136;SDS011;42008;52.934;5.884;2023-04-24T04:22:11;27.13;;;20.57;;
56136;SDS011;42008;52.934;5.884;2023-04-24T04:24:37;21.80;;;18.03;;
56136;SDS011;42008;52.934;5.884;2023-04-24T04:27:03;18.47;;;15.57;;
56136;SDS011;42008;52.934;5.884;2023-04-24T04:29:29;20.23;;;15.90;;
56136;SDS011;42008;52.934;5.884;2023-04-24T04:31:56;17.87;;;14.23;;
56136;SDS011;42008;52.934;5.884;2023-04-24T04:34:22;15.37;;;13.07;;
56136;SDS011;42008;52.934;5.884;2023-04-24T04:36:48;16.47;;;12.43;;
56136;SDS011;42008;52.934;5.884;2023-04-24T04:39:13;14.43;;;11.50;;
56136;SDS011;42008;52.934;5.884;2023-04-24T04:41:40;13.40;;;11.00;;
56136;SDS011;42008;52.934;5.884;2023-04-24T04:44:06;12.70;;;10.20;;
56136;SDS011;42008;52.934;5.884;2023-04-24T04:46:33;11.47;;;9.87;;
56136;SDS011;42008;52.934;5.884;2023-04-24T04:49:00;10.60;;;8.63;;
56136;SDS011;42008;52.934;5.884;2023-04-24T04:51:26;10.73;;;7.00;;
56136;SDS011;42008;52.934;5.884;2023-04-24T04:53:52;7.13;;;5.27;;
56136;SDS011;42008;52.934;5.884;2023-04-24T04:56:18;6.20;;;4.70;;
56136;SDS011;42008;52.934;5.884;2023-04-24T04:58:44;6.30;;;4.07;;
56136;SDS011;42008;52.934;5.884;2023-04-24T05:01:09;6.13;;;4.20;;
56136;SDS011;42008;52.934;5.884;2023-04-24T05:03:35;5.80;;;3.53;;
56136;SDS011;42008;52.934;5.884;2023-04-24T05:06:01;6.17;;;3.90;;
56136;SDS011;42008;52.934;5.884;2023-04-24T05:08:27;7.73;;;4.03;;
56136;SDS011;42008;52.934;5.884;2023-04-24T05:10:53;7.73;;;3.80;;
56136;SDS011;42008;52.934;5.884;2023-04-24T05:13:19;10.20;;;4.20;;
56136;SDS011;42008;52.934;5.884;2023-04-24T05:15:44;6.53;;;4.57;;
56136;SDS011;42008;52.934;5.884;2023-04-24T05:18:10;12.83;;;4.90;;
56136;SDS011;42008;52.934;5.884;2023-04-24T05:20:36;7.37;;;5.23;;
56136;SDS011;42008;52.934;5.884;2023-04-24T05:23:01;10.97;;;6.03;;
56136;SDS011;42008;52.934;5.884;2023-04-24T05:25:27;11.77;;;5.80;;
56136;SDS011;42008;52.934;5.884;2023-04-24T05:27:52;11.47;;;6.43;;
56136;SDS011;42008;52.934;5.884;2023-04-24T05:30:18;10.43;;;6.00;;
56136;SDS011;42008;52.934;5.884;2023-04-24T05:32:44;10.80;;;5.27;;
56136;SDS011;42008;52.934;5.884;2023-04-24T05:35:10;8.20;;;4.93;;
56136;SDS011;42008;52.934;5.884;2023-04-24T05:37:36;8.23;;;5.20;;
56136;SDS011;42008;52.934;5.884;2023-04-24T05:40:02;9.20;;;5.43;;
56136;SDS011;42008;52.934;5.884;2023-04-24T05:42:30;9.47;;;5.77;;
56136;SDS011;42008;52.934;5.884;2023-04-24T05:44:56;10.63;;;5.73;;
56136;SDS011;42008;52.934;5.884;2023-04-24T05:47:21;11.30;;;6.40;;
56136;SDS011;42008;52.934;5.884;2023-04-24T05:49:47;13.63;;;6.93;;
56136;SDS011;42008;52.934;5.884;2023-04-24T05:52:13;14.07;;;7.43;;
56136;SDS011;42008;52.934;5.884;2023-04-24T05:54:38;11.23;;;7.83;;
56136;SDS011;42008;52.934;5.884;2023-04-24T05:57:04;13.57;;;8.23;;
56136;SDS011;42008;52.934;5.884;2023-04-24T05:59:33;17.37;;;10.07;;
56136;SDS011;42008;52.934;5.884;2023-04-24T06:02:00;13.17;;;9.57;;
56136;SDS011;42008;52.934;5.884;2023-04-24T06:04:25;14.87;;;10.20;;
56136;SDS011;42008;52.934;5.884;2023-04-24T06:06:51;12.87;;;9.30;;
56136;SDS011;42008;52.934;5.884;2023-04-24T06:09:21;15.00;;;9.77;;
56136;SDS011;42008;52.934;5.884;2023-04-24T06:11:47;15.23;;;10.87;;
56136;SDS011;42008;52.934;5.884;2023-04-24T06:14:13;14.10;;;8.70;;
56136;SDS011;42008;52.934;5.884;2023-04-24T06:16:40;17.37;;;10.07;;
56136;SDS011;42008;52.934;5.884;2023-04-24T06:19:07;10.40;;;6.77;;
56136;SDS011;42008;52.934;5.884;2023-04-24T06:21:32;10.20;;;6.03;;
56136;SDS011;42008;52.934;5.884;2023-04-24T06:23:58;9.20;;;4.10;;
56136;SDS011;42008;52.934;5.884;2023-04-24T06:26:23;6.10;;;2.70;;
56136;SDS011;42008;52.934;5.884;2023-04-24T06:28:52;6.53;;;2.20;;
56136;SDS011;42008;52.934;5.884;2023-04-24T06:31:20;6.03;;;1.87;;
56136;SDS011;42008;52.934;5.884;2023-04-24T06:33:47;4.83;;;2.17;;
56136;SDS011;42008;52.934;5.884;2023-04-24T06:36:14;5.77;;;2.00;;
56136;SDS011;42008;52.934;5.884;2023-04-24T06:38:40;8.70;;;2.17;;
56136;SDS011;42008;52.934;5.884;2023-04-24T06:41:06;7.13;;;2.40;;
56136;SDS011;42008;52.934;5.884;2023-04-24T06:43:32;8.80;;;3.23;;
56136;SDS011;42008;52.934;5.884;2023-04-24T06:45:58;11.57;;;5.77;;
56136;SDS011;42008;52.934;5.884;2023-04-24T06:48:24;14.00;;;7.67;;
56136;SDS011;42008;52.934;5.884;2023-04-24T06:50:50;18.17;;;8.50;;
56136;SDS011;42008;52.934;5.884;2023-04-24T06:53:16;18.67;;;9.07;;
56136;SDS011;42008;52.934;5.884;2023-04-24T06:55:42;21.87;;;12.00;;
56136;SDS011;42008;52.934;5.884;2023-04-24T06:58:09;26.10;;;14.90;;
56136;SDS011;42008;52.934;5.884;2023-04-24T07:00:35;26.57;;;16.70;;
56136;SDS011;42008;52.934;5.884;2023-04-24T07:03:01;28.43;;;16.83;;
56136;SDS011;42008;52.934;5.884;2023-04-24T07:05:27;33.70;;;20.00;;
56136;SDS011;42008;52.934;5.884;2023-04-24T07:07:54;46.27;;;24.47;;
56136;SDS011;42008;52.934;5.884;2023-04-24T07:10:19;45.77;;;24.70;;
56136;SDS011;42008;52.934;5.884;2023-04-24T07:12:45;45.90;;;24.53;;
56136;SDS011;42008;52.934;5.884;2023-04-24T07:15:11;40.63;;;21.97;;
56136;SDS011;42008;52.934;5.884;2023-04-24T07:17:37;35.67;;;21.43;;
56136;SDS011;42008;52.934;5.884;2023-04-24T07:20:08;32.67;;;20.37;;
56136;SDS011;42008;52.934;5.884;2023-04-24T07:22:35;33.83;;;18.93;;
56136;SDS011;42008;52.934;5.884;2023-04-24T07:25:01;34.70;;;18.77;;
56136;SDS011;42008;52.934;5.884;2023-04-24T07:27:28;29.07;;;18.43;;
56136;SDS011;42008;52.934;5.884;2023-04-24T07:29:53;33.60;;;20.37;;
56136;SDS011;42008;52.934;5.884;2023-04-24T07:32:19;39.93;;;20.63;;
56136;SDS011;42008;52.934;5.884;2023-04-24T07:34:44;27.13;;;19.10;;
56136;SDS011;42008;52.934;5.884;2023-04-24T07:37:10;33.60;;;20.03;;
56136;SDS011;42008;52.934;5.884;2023-04-24T07:39:36;33.63;;;20.97;;
56136;SDS011;42008;52.934;5.884;2023-04-24T07:42:02;33.53;;;18.83;;
56136;SDS011;42008;52.934;5.884;2023-04-24T07:44:28;27.50;;;17.40;;
56136;SDS011;42008;52.934;5.884;2023-04-24T07:46:54;27.60;;;16.50;;
56136;SDS011;42008;52.934;5.884;2023-04-24T07:49:20;23.40;;;15.17;;
56136;SDS011;42008;52.934;5.884;2023-04-24T07:51:45;21.63;;;13.37;;
56136;SDS011;42008;52.934;5.884;2023-04-24T07:54:11;23.73;;;13.60;;
56136;SDS011;42008;52.934;5.884;2023-04-24T07:56:37;23.03;;;13.50;;
56136;SDS011;42008;52.934;5.884;2023-04-24T07:59:07;21.97;;;12.53;;
56136;SDS011;42008;52.934;5.884;2023-04-24T08:01:32;19.70;;;11.73;;
56136;SDS011;42008;52.934;5.884;2023-04-24T08:03:58;20.57;;;12.20;;
56136;SDS011;42008;52.934;5.884;2023-04-24T08:06:23;17.30;;;10.37;;
56136;SDS011;42008;52.934;5.884;2023-04-24T08:08:50;14.83;;;9.37;;
56136;SDS011;42008;52.934;5.884;2023-04-24T08:11:16;23.40;;;10.10;;
56136;SDS011;42008;52.934;5.884;2023-04-24T08:13:42;20.60;;;10.17;;
56136;SDS011;42008;52.934;5.884;2023-04-24T08:16:08;15.60;;;8.33;;
56136;SDS011;42008;52.934;5.884;2023-04-24T08:18:33;20.37;;;9.93;;
56136;SDS011;42008;52.934;5.884;2023-04-24T08:21:00;19.27;;;9.30;;
56136;SDS011;42008;52.934;5.884;2023-04-24T08:23:26;16.40;;;7.93;;
56136;SDS011;42008;52.934;5.884;2023-04-24T08:25:52;19.13;;;9.00;;
56136;SDS011;42008;52.934;5.884;2023-04-24T08:28:17;19.50;;;8.47;;
56136;SDS011;42008;52.934;5.884;2023-04-24T08:30:45;16.03;;;6.90;;
56136;SDS011;42008;52.934;5.884;2023-04-24T08:33:12;12.57;;;7.47;;
56136;SDS011;42008;52.934;5.884;2023-04-24T08:35:38;15.37;;;6.93;;
56136;SDS011;42008;52.934;5.884;2023-04-24T08:38:04;16.67;;;7.17;;
56136;SDS011;42008;52.934;5.884;2023-04-24T08:40:29;16.13;;;7.40;;
56136;SDS011;42008;52.934;5.884;2023-04-24T08:42:59;18.17;;;7.50;;
56136;SDS011;42008;52.934;5.884;2023-04-24T08:45:25;15.40;;;6.40;;
56136;SDS011;42008;52.934;5.884;2023-04-24T08:47:54;15.47;;;6.87;;
56136;SDS011;42008;52.934;5.884;2023-04-24T08:50:21;13.93;;;6.13;;
56136;SDS011;42008;52.934;5.884;2023-04-24T08:52:49;12.90;;;5.83;;
56136;SDS011;42008;52.934;5.884;2023-04-24T08:55:16;16.03;;;6.23;;
56136;SDS011;42008;52.934;5.884;2023-04-24T08:57:44;14.13;;;5.20;;
56136;SDS011;42008;52.934;5.884;2023-04-24T09:00:11;12.20;;;5.03;;
56136;SDS011;42008;52.934;5.884;2023-04-24T09:02:38;11.27;;;4.40;;
56136;SDS011;42008;52.934;5.884;2023-04-24T09:05:06;15.83;;;4.07;;
56136;SDS011;42008;52.934;5.884;2023-04-24T09:07:33;14.27;;;4.93;;
56136;SDS011;42008;52.934;5.884;2023-04-24T09:10:02;10.20;;;4.30;;
56136;SDS011;42008;52.934;5.884;2023-04-24T09:12:28;15.40;;;4.60;;
56136;SDS011;42008;52.934;5.884;2023-04-24T09:14:54;14.80;;;4.77;;
56136;SDS011;42008;52.934;5.884;2023-04-24T09:17:20;17.10;;;5.03;;
56136;SDS011;42008;52.934;5.884;2023-04-24T09:19:47;13.93;;;4.93;;
56136;SDS011;42008;52.934;5.884;2023-04-24T09:22:13;15.93;;;5.33;;
56136;SDS011;42008;52.934;5.884;2023-04-24T09:24:40;18.10;;;5.23;;
56136;SDS011;42008;52.934;5.884;2023-04-24T09:27:06;22.83;;;5.83;;
56136;SDS011;42008;52.934;5.884;2023-04-24T09:29:32;17.70;;;4.77;;
56136;SDS011;42008;52.934;5.884;2023-04-24T09:31:58;15.50;;;5.00;;
56136;SDS011;42008;52.934;5.884;2023-04-24T09:34:27;19.87;;;4.10;;
56136;SDS011;42008;52.934;5.884;2023-04-24T09:36:53;16.23;;;4.60;;
56136;SDS011;42008;52.934;5.884;2023-04-24T09:39:19;16.90;;;4.80;;
56136;SDS011;42008;52.934;5.884;2023-04-24T09:41:49;21.00;;;4.30;;
56136;SDS011;42008;52.934;5.884;2023-04-24T09:44:19;17.10;;;4.30;;
56136;SDS011;42008;52.934;5.884;2023-04-24T09:46:48;14.73;;;4.03;;
56136;SDS011;42008;52.934;5.884;2023-04-24T09:49:16;19.43;;;4.73;;
56136;SDS011;42008;52.934;5.884;2023-04-24T09:51:45;15.70;;;3.53;;
56136;SDS011;42008;52.934;5.884;2023-04-24T09:54:14;17.90;;;4.30;;
56136;SDS011;42008;52.934;5.884;2023-04-24T09:56:44;18.83;;;3.70;;
56136;SDS011;42008;52.934;5.884;2023-04-24T09:59:15;16.80;;;3.97;;
56136;SDS011;42008;52.934;5.884;2023-04-24T10:01:42;13.80;;;3.50;;
56136;SDS011;42008;52.934;5.884;2023-04-24T10:04:22;20.33;;;3.80;;
56136;SDS011;42008;52.934;5.884;2023-04-24T10:06:50;20.13;;;3.97;;
56136;SDS011;42008;52.934;5.884;2023-04-24T10:09:20;20.77;;;4.33;;
56136;SDS011;42008;52.934;5.884;2023-04-24T10:11:48;13.30;;;3.47;;
56136;SDS011;42008;52.934;5.884;2023-04-24T10:14:19;20.87;;;3.90;;
56136;SDS011;42008;52.934;5.884;2023-04-24T10:16:46;19.80;;;3.60;;
56136;SDS011;42008;52.934;5.884;2023-04-24T10:19:12;19.23;;;3.33;;
56136;SDS011;42008;52.934;5.884;2023-04-24T10:21:40;16.10;;;3.77;;
56136;SDS011;42008;52.934;5.884;2023-04-24T10:24:10;20.00;;;3.97;;
56136;SDS011;42008;52.934;5.884;2023-04-24T10:26:37;24.03;;;4.37;;
56136;SDS011;42008;52.934;5.884;2023-04-24T10:29:04;22.23;;;3.73;;
56136;SDS011;42008;52.934;5.884;2023-04-24T10:31:34;21.87;;;4.27;;
56136;SDS011;42008;52.934;5.884;2023-04-24T10:34:01;13.43;;;2.97;;
56136;SDS011;42008;52.934;5.884;2023-04-24T10:36:28;15.43;;;3.40;;
56136;SDS011;42008;52.934;5.884;2023-04-24T10:38:57;15.17;;;3.00;;
56136;SDS011;42008;52.934;5.884;2023-04-24T10:41:25;10.20;;;2.60;;
56136;SDS011;42008;52.934;5.884;2023-04-24T10:46:52;10.33;;;3.03;;
56136;SDS011;42008;52.934;5.884;2023-04-24T10:49:27;8.20;;;2.13;;
56136;SDS011;42008;52.934;5.884;2023-04-24T10:51:54;11.90;;;2.77;;
56136;SDS011;42008;52.934;5.884;2023-04-24T10:54:35;9.53;;;2.17;;
56136;SDS011;42008;52.934;5.884;2023-04-24T10:59:50;12.83;;;3.43;;
56136;SDS011;42008;52.934;5.884;2023-04-24T11:02:38;12.30;;;2.67;;
56136;SDS011;42008;52.934;5.884;2023-04-24T11:05:08;15.23;;;2.70;;
56136;SDS011;42008;52.934;5.884;2023-04-24T11:08:09;15.53;;;3.37;;
56136;SDS011;42008;52.934;5.884;2023-04-24T11:10:54;16.97;;;3.17;;
56136;SDS011;42008;52.934;5.884;2023-04-24T11:13:22;7.90;;;2.27;;
56136;SDS011;42008;52.934;5.884;2023-04-24T11:18:38;7.87;;;2.80;;
56136;SDS011;42008;52.934;5.884;2023-04-24T11:21:17;8.37;;;2.27;;
56136;SDS011;42008;52.934;5.884;2023-04-24T11:23:44;9.87;;;2.83;;
56136;SDS011;42008;52.934;5.884;2023-04-24T11:26:11;8.17;;;2.33;;
56136;SDS011;42008;52.934;5.884;2023-04-24T11:28:46;9.27;;;2.17;;
56136;SDS011;42008;52.934;5.884;2023-04-24T11:34:14;7.97;;;1.50;;
56136;SDS011;42008;52.934;5.884;2023-04-24T11:36:40;9.50;;;1.93;;
56136;SDS011;42008;52.934;5.884;2023-04-24T11:39:08;9.13;;;2.00;;
56136;SDS011;42008;52.934;5.884;2023-04-24T11:41:35;10.57;;;1.93;;
56136;SDS011;42008;52.934;5.884;2023-04-24T11:44:01;10.47;;;2.03;;
56136;SDS011;42008;52.934;5.884;2023-04-24T11:46:29;7.13;;;1.57;;
56136;SDS011;42008;52.934;5.884;2023-04-24T11:48:56;9.33;;;1.50;;
56136;SDS011;42008;52.934;5.884;2023-04-24T11:51:23;5.17;;;1.23;;
56136;SDS011;42008;52.934;5.884;2023-04-24T11:53:50;7.30;;;1.50;;
56136;SDS011;42008;52.934;5.884;2023-04-24T11:56:19;6.80;;;1.80;;
56136;SDS011;42008;52.934;5.884;2023-04-24T11:58:47;7.73;;;2.00;;
56136;SDS011;42008;52.934;5.884;2023-04-24T12:01:13;9.03;;;1.80;;
56136;SDS011;42008;52.934;5.884;2023-04-24T12:03:39;8.93;;;1.60;;
56136;SDS011;42008;52.934;5.884;2023-04-24T12:06:08;7.10;;;1.57;;
56136;SDS011;42008;52.934;5.884;2023-04-24T12:08:35;8.93;;;2.00;;
56136;SDS011;42008;52.934;5.884;2023-04-24T12:11:01;12.27;;;1.90;;
56136;SDS011;42008;52.934;5.884;2023-04-24T12:13:28;5.23;;;1.40;;
56136;SDS011;42008;52.934;5.884;2023-04-24T12:15:54;6.03;;;1.10;;
56136;SDS011;42008;52.934;5.884;2023-04-24T12:18:24;6.37;;;1.50;;
56136;SDS011;42008;52.934;5.884;2023-04-24T12:20:50;7.93;;;1.87;;
56136;SDS011;42008;52.934;5.884;2023-04-24T12:23:16;6.97;;;1.83;;
56136;SDS011;42008;52.934;5.884;2023-04-24T12:25:59;8.57;;;1.60;;
56136;SDS011;42008;52.934;5.884;2023-04-24T12:28:34;7.60;;;1.60;;
56136;SDS011;42008;52.934;5.884;2023-04-24T12:31:03;6.10;;;1.43;;
56136;SDS011;42008;52.934;5.884;2023-04-24T12:33:32;7.00;;;1.20;;
56136;SDS011;42008;52.934;5.884;2023-04-24T12:35:59;3.80;;;1.20;;
56136;SDS011;42008;52.934;5.884;2023-04-24T12:38:26;4.93;;;1.47;;
56136;SDS011;42008;52.934;5.884;2023-04-24T12:41:04;8.10;;;1.70;;
56136;SDS011;42008;52.934;5.884;2023-04-24T12:43:37;10.50;;;1.57;;
56136;SDS011;42008;52.934;5.884;2023-04-24T12:46:03;6.67;;;1.70;;
56136;SDS011;42008;52.934;5.884;2023-04-24T12:48:29;5.43;;;1.50;;
56136;SDS011;42008;52.934;5.884;2023-04-24T12:50:59;16.50;;;2.90;;
56136;SDS011;42008;52.934;5.884;2023-04-24T12:53:26;16.37;;;3.30;;
56136;SDS011;42008;52.934;5.884;2023-04-24T12:55:54;8.97;;;2.43;;
56136;SDS011;42008;52.934;5.884;2023-04-24T12:58:20;12.10;;;2.83;;
56136;SDS011;42008;52.934;5.884;2023-04-24T13:00:46;8.77;;;2.17;;
56136;SDS011;42008;52.934;5.884;2023-04-24T13:03:12;9.53;;;2.50;;
56136;SDS011;42008;52.934;5.884;2023-04-24T13:05:38;11.13;;;2.43;;
56136;SDS011;42008;52.934;5.884;2023-04-24T13:08:03;11.57;;;1.93;;
56136;SDS011;42008;52.934;5.884;2023-04-24T13:10:29;11.63;;;2.10;;
56136;SDS011;42008;52.934;5.884;2023-04-24T13:12:55;12.70;;;2.70;;
56136;SDS011;42008;52.934;5.884;2023-04-24T13:15:21;13.37;;;2.33;;
56136;SDS011;42008;52.934;5.884;2023-04-24T13:17:47;13.77;;;2.80;;
56136;SDS011;42008;52.934;5.884;2023-04-24T13:20:12;11.70;;;3.07;;
56136;SDS011;42008;52.934;5.884;2023-04-24T13:22:38;14.27;;;2.97;;
56136;SDS011;42008;52.934;5.884;2023-04-24T13:25:04;15.40;;;2.77;;
56136;SDS011;42008;52.934;5.884;2023-04-24T13:27:31;12.63;;;2.60;;
56136;SDS011;42008;52.934;5.884;2023-04-24T13:29:56;14.17;;;2.40;;
56136;SDS011;42008;52.934;5.884;2023-04-24T13:32:22;12.17;;;2.70;;
56136;SDS011;42008;52.934;5.884;2023-04-24T13:34:47;12.53;;;2.40;;
56136;SDS011;42008;52.934;5.884;2023-04-24T13:37:13;12.23;;;2.97;;
56136;SDS011;42008;52.934;5.884;2023-04-24T13:39:39;16.93;;;3.47;;
56136;SDS011;42008;52.934;5.884;2023-04-24T13:42:07;16.13;;;3.97;;
56136;SDS011;42008;52.934;5.884;2023-04-24T13:44:33;15.77;;;4.57;;
56136;SDS011;42008;52.934;5.884;2023-04-24T13:46:59;14.03;;;3.30;;
56136;SDS011;42008;52.934;5.884;2023-04-24T13:49:24;17.37;;;3.87;;
56136;SDS011;42008;52.934;5.884;2023-04-24T13:51:51;12.63;;;3.03;;
56136;SDS011;42008;52.934;5.884;2023-04-24T13:54:18;10.70;;;2.87;;
56136;SDS011;42008;52.934;5.884;2023-04-24T13:56:44;13.57;;;3.57;;
56136;SDS011;42008;52.934;5.884;2023-04-24T13:59:09;13.43;;;2.83;;
56136;SDS011;42008;52.934;5.884;2023-04-24T14:01:37;8.90;;;2.20;;
56136;SDS011;42008;52.934;5.884;2023-04-24T14:04:02;9.47;;;2.23;;
56136;SDS011;42008;52.934;5.884;2023-04-24T14:06:28;9.50;;;2.53;;
56136;SDS011;42008;52.934;5.884;2023-04-24T14:08:53;18.07;;;3.27;;
56136;SDS011;42008;52.934;5.884;2023-04-24T14:11:19;16.23;;;3.50;;
56136;SDS011;42008;52.934;5.884;2023-04-24T14:13:45;15.17;;;3.43;;
56136;SDS011;42008;52.934;5.884;2023-04-24T14:16:11;19.93;;;3.13;;
56136;SDS011;42008;52.934;5.884;2023-04-24T14:18:36;17.97;;;3.40;;
56136;SDS011;42008;52.934;5.884;2023-04-24T14:21:05;20.80;;;4.30;;
56136;SDS011;42008;52.934;5.884;2023-04-24T14:23:31;13.63;;;3.33;;
56136;SDS011;42008;52.934;5.884;2023-04-24T14:25:57;16.47;;;3.57;;
56136;SDS011;42008;52.934;5.884;2023-04-24T14:28:23;18.43;;;3.67;;
56136;SDS011;42008;52.934;5.884;2023-04-24T14:30:49;17.23;;;3.57;;
56136;SDS011;42008;52.934;5.884;2023-04-24T14:33:15;17.43;;;3.67;;
56136;SDS011;42008;52.934;5.884;2023-04-24T14:35:41;17.57;;;3.43;;
56136;SDS011;42008;52.934;5.884;2023-04-24T14:38:10;18.63;;;3.70;;
56136;SDS011;42008;52.934;5.884;2023-04-24T14:40:36;17.10;;;3.43;;
56136;SDS011;42008;52.934;5.884;2023-04-24T14:43:02;19.03;;;4.47;;
56136;SDS011;42008;52.934;5.884;2023-04-24T14:45:28;21.10;;;4.07;;